Guanhaes, Brazil
Current Conditions -  °F | °C
As of 1:00 PM on Saturday 20 Dec 2014 (Local Time) from SBIP Reporting Station
Scattered Clouds Scattered Clouds  
Wind Chill: 88°   Ceiling: Unl
Heat Index: 88°   Visibility: 6mi
Dew Point: 63°   Wind: 8mph
Humidity: 43%   Direction: 60°ENE
Pressure: 29.88"   Gusts: NA
Location:  18.78°S, 42.93°W
Report Text: SBIP 201500Z 06007KT 9999 SCT030 31/17 Q1012
Loading
Personal Weather Stations






























Interactive Weather Map New forecast layout! Learn more

10-Day Weather Forecast

Advertisements
Track Severe Weather on mobile